createdAt,value
2018-05-26T00:00:38.011Z,20.6
2018-05-26T00:01:39.405Z,20.6
2018-05-26T00:02:40.733Z,20.6
2018-05-26T00:03:42.100Z,20.5
2018-05-26T00:04:43.468Z,20.6
2018-05-26T00:05:44.835Z,20.6
2018-05-26T00:06:46.193Z,20.6
2018-05-26T00:07:47.559Z,20.6
2018-05-26T00:08:48.919Z,20.6
2018-05-26T00:09:50.273Z,20.6
2018-05-26T00:10:51.660Z,20.6
2018-05-26T00:11:53.020Z,20.6
2018-05-26T00:12:54.371Z,20.6
2018-05-26T00:13:55.743Z,20.6
2018-05-26T00:14:57.104Z,20.6
2018-05-26T00:15:58.467Z,20.6
2018-05-26T00:16:59.835Z,20.6
2018-05-26T00:18:01.206Z,20.5
2018-05-26T00:19:02.560Z,20.5
2018-05-26T00:20:03.927Z,20.5
2018-05-26T00:21:05.420Z,20.5
2018-05-26T00:22:06.783Z,20.6
2018-05-26T00:23:08.139Z,20.5
2018-05-26T00:24:09.498Z,20.5
2018-05-26T00:25:10.860Z,20.6
2018-05-26T00:26:13.026Z,20.5
2018-05-26T00:27:14.391Z,20.5
2018-05-26T00:28:15.753Z,20.5
2018-05-26T00:29:17.129Z,20.4
2018-05-26T00:30:18.486Z,20.5
2018-05-26T00:31:19.848Z,20.5
2018-05-26T00:32:21.208Z,20.5
2018-05-26T00:33:22.577Z,20.5
2018-05-26T00:34:24.653Z,20.5
2018-05-26T00:35:26.011Z,20.4
2018-05-26T00:36:27.376Z,20.6
2018-05-26T00:37:28.743Z,20.5
2018-05-26T00:38:30.102Z,20.5
2018-05-26T00:39:31.508Z,20.5
2018-05-26T00:40:32.845Z,20.6
2018-05-26T00:41:34.211Z,20.5
2018-05-26T00:42:35.579Z,20.5
2018-05-26T00:43:36.948Z,20.6
2018-05-26T00:44:38.307Z,20.5
2018-05-26T00:45:39.672Z,20.5
2018-05-26T00:46:41.030Z,20.6
2018-05-26T00:47:42.418Z,20.5
2018-05-26T00:48:43.898Z,20.5
2018-05-26T00:49:45.253Z,20.5
2018-05-26T00:50:46.625Z,20.5
2018-05-26T00:51:47.995Z,20.5
2018-05-26T00:52:49.359Z,20.5
2018-05-26T00:53:50.711Z,20.4
2018-05-26T00:54:52.144Z,20.5
2018-05-26T00:55:53.503Z,20.5
2018-05-26T00:56:54.863Z,20.5
2018-05-26T00:57:56.231Z,20.5
2018-05-26T00:58:57.591Z,20.5
2018-05-26T00:59:58.952Z,20.5
2018-05-26T01:01:00.323Z,20.4
2018-05-26T01:02:01.731Z,20.5
2018-05-26T01:03:03.111Z,20.4
2018-05-26T01:04:04.474Z,20.4
2018-05-26T01:05:05.832Z,20.5
2018-05-26T01:06:07.199Z,20.5
2018-05-26T01:07:08.563Z,20.5
2018-05-26T01:08:09.923Z,20.4
2018-05-26T01:09:11.284Z,20.4
2018-05-26T01:10:12.642Z,20.5
2018-05-26T01:11:14.007Z,20.4
2018-05-26T01:12:15.365Z,20.4
2018-05-26T01:13:16.730Z,20.4
2018-05-26T01:14:18.090Z,20.4
2018-05-26T01:15:19.448Z,20.5
2018-05-26T01:16:20.805Z,20.4
2018-05-26T01:17:22.166Z,20.5
2018-05-26T01:18:23.529Z,20.4
2018-05-26T01:19:24.896Z,20.4
2018-05-26T01:20:26.263Z,20.5
2018-05-26T01:21:27.624Z,20.5
2018-05-26T01:22:28.985Z,20.4
2018-05-26T01:23:30.339Z,20.5
2018-05-26T01:24:31.796Z,20.4
2018-05-26T01:25:33.215Z,20.4
2018-05-26T01:26:34.576Z,20.4
2018-05-26T01:27:35.935Z,20.5
2018-05-26T01:28:37.293Z,20.5
2018-05-26T01:29:38.664Z,20.5
2018-05-26T01:30:40.012Z,20.5
2018-05-26T01:31:41.378Z,20.5
2018-05-26T01:32:42.755Z,20.4
2018-05-26T01:33:44.119Z,20.5
2018-05-26T01:34:45.476Z,20.5
2018-05-26T01:35:46.837Z,20.6
2018-05-26T01:36:48.206Z,20.5
2018-05-26T01:37:49.560Z,20.5
2018-05-26T01:38:50.935Z,20.5
2018-05-26T01:39:52.291Z,20.5
2018-05-26T01:40:53.651Z,20.5
2018-05-26T01:41:55.019Z,20.5
2018-05-26T01:42:56.383Z,20.4
2018-05-26T01:43:57.746Z,20.5
2018-05-26T01:44:59.105Z,20.5
2018-05-26T01:46:00.467Z,20.5
2018-05-26T01:47:01.901Z,20.5
2018-05-26T01:48:03.261Z,20.5
2018-05-26T01:49:04.627Z,20.5
2018-05-26T01:50:05.997Z,20.5
2018-05-26T01:51:07.361Z,20.5
2018-05-26T01:52:08.724Z,20.5
2018-05-26T01:53:10.085Z,20.4
2018-05-26T01:54:11.452Z,20.4
2018-05-26T01:55:12.810Z,20.3
2018-05-26T01:56:14.171Z,20.4
2018-05-26T01:57:15.583Z,20.4
2018-05-26T01:58:16.950Z,20.3
2018-05-26T01:59:19.389Z,20.3
2018-05-26T02:00:20.746Z,20.3
2018-05-26T02:01:22.119Z,20.3
2018-05-26T02:02:23.476Z,20.3
2018-05-26T02:03:24.831Z,20.3
2018-05-26T02:04:26.196Z,20.3
2018-05-26T02:05:27.557Z,20.2
2018-05-26T02:06:28.922Z,20.2
2018-05-26T02:07:30.284Z,20.2
2018-05-26T02:08:31.839Z,20.3
2018-05-26T02:09:33.272Z,20.3
2018-05-26T02:10:34.630Z,20.3
2018-05-26T02:11:35.994Z,20.2
2018-05-26T02:12:37.350Z,20.2
2018-05-26T02:13:38.714Z,20.2
2018-05-26T02:14:40.067Z,20.3
2018-05-26T02:15:41.434Z,20.3
2018-05-26T02:16:42.803Z,20.3
2018-05-26T02:17:44.159Z,20.2
2018-05-26T02:18:45.520Z,20.2
2018-05-26T02:19:46.889Z,20.2
2018-05-26T02:20:48.251Z,20.3
2018-05-26T02:21:49.612Z,20.3
2018-05-26T02:22:50.975Z,20.2
2018-05-26T02:23:52.356Z,20.1
2018-05-26T02:24:53.719Z,20.1
2018-05-26T02:25:55.077Z,20.1
2018-05-26T02:26:56.437Z,20.1
2018-05-26T02:27:57.791Z,20.2
2018-05-26T02:28:59.157Z,20.2
2018-05-26T02:30:00.518Z,20.1
2018-05-26T02:31:02.648Z,20.1
2018-05-26T02:32:04.028Z,20.1
2018-05-26T02:33:05.379Z,20.1
2018-05-26T02:34:06.742Z,20.1
2018-05-26T02:35:08.104Z,20.1
2018-05-26T02:36:09.466Z,20.0
2018-05-26T02:37:10.957Z,19.9
2018-05-26T02:38:12.327Z,20.0
2018-05-26T02:39:13.684Z,20.0
2018-05-26T02:40:15.046Z,20.0
2018-05-26T02:41:16.401Z,19.9
2018-05-26T02:42:17.769Z,19.9
2018-05-26T02:43:19.143Z,19.9
2018-05-26T02:44:20.501Z,19.9
2018-05-26T02:45:21.865Z,19.8
2018-05-26T02:46:23.216Z,19.8
2018-05-26T02:47:24.586Z,19.8
2018-05-26T02:48:25.949Z,19.8
2018-05-26T02:49:27.306Z,19.9
2018-05-26T02:50:28.662Z,19.8
2018-05-26T02:51:30.022Z,19.8
2018-05-26T02:52:32.328Z,19.7
2018-05-26T02:53:33.734Z,19.7
2018-05-26T02:54:35.094Z,19.6
2018-05-26T02:55:36.451Z,19.6
2018-05-26T02:56:37.814Z,19.6
2018-05-26T02:57:39.177Z,19.6
2018-05-26T02:58:40.530Z,19.6
2018-05-26T02:59:41.889Z,19.6
2018-05-26T03:00:43.263Z,19.6
2018-05-26T03:01:44.626Z,19.4
2018-05-26T03:02:45.984Z,19.4
2018-05-26T03:03:47.346Z,19.5
2018-05-26T03:04:48.702Z,19.4
2018-05-26T03:05:50.069Z,19.5
2018-05-26T03:06:51.436Z,19.5
2018-05-26T03:07:52.823Z,19.5
2018-05-26T03:08:54.203Z,19.5
2018-05-26T03:09:55.559Z,19.4
2018-05-26T03:10:57.041Z,19.4
2018-05-26T03:11:58.394Z,19.5
2018-05-26T03:12:59.754Z,19.6
2018-05-26T03:14:01.119Z,19.6
2018-05-26T03:15:02.525Z,19.7
2018-05-26T03:16:03.933Z,19.7
2018-05-26T03:17:05.292Z,19.6
2018-05-26T03:18:06.655Z,19.7
2018-05-26T03:19:08.025Z,19.6
2018-05-26T03:20:09.385Z,19.6
2018-05-26T03:21:10.740Z,19.6
2018-05-26T03:22:12.106Z,19.6
2018-05-26T03:23:13.488Z,19.6
2018-05-26T03:24:14.850Z,19.6
2018-05-26T03:25:16.327Z,19.7
2018-05-26T03:26:17.692Z,19.6
2018-05-26T03:27:19.057Z,19.6
2018-05-26T03:28:20.426Z,19.7
2018-05-26T03:29:21.791Z,19.6
2018-05-26T03:30:23.158Z,19.6
2018-05-26T03:31:24.526Z,19.6
2018-05-26T03:32:25.890Z,19.6
2018-05-26T03:33:27.250Z,19.6
2018-05-26T03:34:28.612Z,19.6
2018-05-26T03:35:29.982Z,19.6
2018-05-26T03:36:31.351Z,19.6
2018-05-26T03:37:32.755Z,19.6
2018-05-26T03:38:34.133Z,19.6
2018-05-26T03:39:35.509Z,19.6
2018-05-26T03:40:36.863Z,19.5
2018-05-26T03:41:38.229Z,19.6
2018-05-26T03:42:39.601Z,19.5
2018-05-26T03:43:40.971Z,19.5
2018-05-26T03:44:42.329Z,19.5
2018-05-26T03:45:43.689Z,19.6
2018-05-26T03:46:45.058Z,19.6
2018-05-26T03:47:46.425Z,19.6
2018-05-26T03:48:47.788Z,19.6
2018-05-26T03:49:49.154Z,19.5
2018-05-26T03:50:50.537Z,19.4
2018-05-26T03:51:51.901Z,19.6
2018-05-26T03:52:53.261Z,19.4
2018-05-26T03:53:54.632Z,19.4
2018-05-26T03:54:55.984Z,19.4
2018-05-26T03:55:57.347Z,19.4
2018-05-26T03:56:58.716Z,19.4
2018-05-26T03:58:00.082Z,19.4
2018-05-26T03:59:02.336Z,19.4
2018-05-26T04:00:03.759Z,19.2
2018-05-26T04:01:05.125Z,19.2
2018-05-26T04:02:06.490Z,19.3
2018-05-26T04:03:07.863Z,19.2
2018-05-26T04:04:09.234Z,19.2
2018-05-26T04:05:10.596Z,19.1
2018-05-26T04:06:11.960Z,19.1
2018-05-26T04:07:13.328Z,19.1
2018-05-26T04:08:14.685Z,19.0
2018-05-26T04:09:16.052Z,19.1
2018-05-26T04:10:17.421Z,19.0
2018-05-26T04:11:18.843Z,19.1
2018-05-26T04:12:20.153Z,19.0
2018-05-26T04:13:21.516Z,19.0
2018-05-26T04:14:22.881Z,19.0
2018-05-26T04:15:24.241Z,19.0
2018-05-26T04:16:25.619Z,19.0
2018-05-26T04:17:26.974Z,18.9
2018-05-26T04:18:28.341Z,18.9
2018-05-26T04:19:29.708Z,18.9
2018-05-26T04:20:31.070Z,18.9
2018-05-26T04:21:32.439Z,18.9
2018-05-26T04:22:33.886Z,19.0
2018-05-26T04:23:35.250Z,18.9
2018-05-26T04:24:36.618Z,19.0
2018-05-26T04:25:37.991Z,19.1
2018-05-26T04:26:39.355Z,19.0
2018-05-26T04:27:40.724Z,19.0
2018-05-26T04:28:42.090Z,19.1
2018-05-26T04:29:43.452Z,19.1
2018-05-26T04:30:44.817Z,19.1
2018-05-26T04:31:46.186Z,19.1
2018-05-26T04:32:47.550Z,19.1
2018-05-26T04:33:48.918Z,19.1
2018-05-26T04:34:50.296Z,19.1
2018-05-26T04:35:51.655Z,19.1
2018-05-26T04:36:53.026Z,19.2
2018-05-26T04:37:54.394Z,19.1
2018-05-26T04:38:55.762Z,19.1
2018-05-26T04:39:57.131Z,19.1
2018-05-26T04:40:58.506Z,19.1
2018-05-26T04:41:59.865Z,19.1
2018-05-26T04:43:01.233Z,19.1
2018-05-26T04:44:02.604Z,19.1
2018-05-26T04:45:03.964Z,19.2
2018-05-26T04:46:05.340Z,19.3
2018-05-26T04:47:06.710Z,19.3
2018-05-26T04:48:08.071Z,19.3
2018-05-26T04:49:09.438Z,19.4
2018-05-26T04:50:10.804Z,19.4
2018-05-26T04:51:12.179Z,19.4
2018-05-26T04:52:13.563Z,19.5
2018-05-26T04:53:14.926Z,19.5
2018-05-26T04:54:16.308Z,19.5
2018-05-26T04:55:17.669Z,19.6
2018-05-26T04:56:19.030Z,19.6
2018-05-26T04:57:20.405Z,19.6
2018-05-26T04:58:21.775Z,19.6
2018-05-26T04:59:23.140Z,19.7
2018-05-26T05:00:24.508Z,19.7
2018-05-26T05:01:25.877Z,19.8
2018-05-26T05:02:27.252Z,19.7
2018-05-26T05:03:28.621Z,19.8
2018-05-26T05:04:29.993Z,19.7
2018-05-26T05:05:31.375Z,19.7
2018-05-26T05:06:32.745Z,19.7
2018-05-26T05:07:34.250Z,19.7
2018-05-26T05:08:35.619Z,19.8
2018-05-26T05:09:36.990Z,19.8
2018-05-26T05:10:38.360Z,19.8
2018-05-26T05:11:39.720Z,19.8
2018-05-26T05:12:41.089Z,19.7
2018-05-26T05:13:42.461Z,19.7
2018-05-26T05:14:43.834Z,19.7
2018-05-26T05:15:45.197Z,19.7
2018-05-26T05:16:46.571Z,19.7
2018-05-26T05:17:47.935Z,19.6
2018-05-26T05:18:49.312Z,19.7
2018-05-26T05:19:50.685Z,19.6
2018-05-26T05:20:52.047Z,19.6
2018-05-26T05:21:53.421Z,19.6
2018-05-26T05:22:54.787Z,19.6
2018-05-26T05:23:56.154Z,19.4
2018-05-26T05:24:57.528Z,19.4
2018-05-26T05:25:58.896Z,19.3
2018-05-26T05:27:00.271Z,19.4
2018-05-26T05:28:01.692Z,19.3
2018-05-26T05:29:03.062Z,19.3
2018-05-26T05:30:04.483Z,19.2
2018-05-26T05:31:05.855Z,19.2
2018-05-26T05:32:07.223Z,19.3
2018-05-26T05:33:08.585Z,19.2
2018-05-26T05:34:09.960Z,19.3
2018-05-26T05:35:11.328Z,19.3
2018-05-26T05:36:12.690Z,19.4
2018-05-26T05:37:14.064Z,19.3
2018-05-26T05:38:15.444Z,19.4
2018-05-26T05:39:16.805Z,19.4
2018-05-26T05:40:18.175Z,19.4
2018-05-26T05:41:19.540Z,19.4
2018-05-26T05:42:20.911Z,19.5
2018-05-26T05:43:22.287Z,19.4
2018-05-26T05:44:23.652Z,19.6
2018-05-26T05:45:25.026Z,19.6
2018-05-26T05:46:26.382Z,19.8
2018-05-26T05:47:27.749Z,20.1
2018-05-26T05:48:29.118Z,20.2
2018-05-26T05:49:30.493Z,20.4
2018-05-26T05:50:32.107Z,20.4
2018-05-26T05:51:33.481Z,20.5
2018-05-26T05:52:34.899Z,20.7
2018-05-26T05:53:36.269Z,20.9
2018-05-26T05:54:37.639Z,21.0
2018-05-26T05:55:39.010Z,21.1
2018-05-26T05:56:40.382Z,21.2
2018-05-26T05:57:41.936Z,21.2
2018-05-26T05:58:43.312Z,21.4
2018-05-26T05:59:44.681Z,21.5
2018-05-26T06:00:46.053Z,21.5
2018-05-26T06:01:47.418Z,21.6
2018-05-26T06:02:48.792Z,21.7
2018-05-26T06:03:50.166Z,21.7
2018-05-26T06:04:51.543Z,21.6
2018-05-26T06:05:52.941Z,21.5
2018-05-26T06:06:54.353Z,21.5
2018-05-26T06:07:55.729Z,21.4
2018-05-26T06:08:57.099Z,21.5
2018-05-26T06:09:58.473Z,21.5
2018-05-26T06:11:01.232Z,21.5
2018-05-26T06:12:02.601Z,21.6
2018-05-26T06:13:03.979Z,21.6
2018-05-26T06:14:05.393Z,21.6
2018-05-26T06:15:06.821Z,21.7
2018-05-26T06:16:08.143Z,21.8
2018-05-26T06:17:09.522Z,21.8
2018-05-26T06:18:10.894Z,22.0
2018-05-26T06:19:12.276Z,22.0
2018-05-26T06:20:13.650Z,22.0
2018-05-26T06:21:15.756Z,22.1
2018-05-26T06:22:17.123Z,22.3
2018-05-26T06:23:18.493Z,22.3
2018-05-26T06:24:19.892Z,22.5
2018-05-26T06:25:21.272Z,22.5
2018-05-26T06:26:22.685Z,22.6
2018-05-26T06:27:24.036Z,22.6
2018-05-26T06:28:25.451Z,22.8
2018-05-26T06:29:26.880Z,22.8
2018-05-26T06:30:28.246Z,22.9
2018-05-26T06:31:29.634Z,22.9
2018-05-26T06:32:30.998Z,23.0
2018-05-26T06:33:32.418Z,23.0
2018-05-26T06:34:33.794Z,23.1
2018-05-26T06:35:35.207Z,23.2
2018-05-26T06:36:36.591Z,23.3
2018-05-26T06:37:38.004Z,23.3
2018-05-26T06:38:39.375Z,23.3
2018-05-26T06:39:40.755Z,23.4
2018-05-26T06:40:42.142Z,23.3
2018-05-26T06:41:43.514Z,23.5
2018-05-26T06:42:45.003Z,23.6
2018-05-26T06:43:46.365Z,23.7
2018-05-26T06:44:47.736Z,23.6
2018-05-26T06:45:49.118Z,23.6
2018-05-26T06:46:50.497Z,23.6
2018-05-26T06:47:51.871Z,23.7
2018-05-26T06:48:53.256Z,23.7
2018-05-26T06:49:54.631Z,23.7
2018-05-26T06:50:56.021Z,23.6
2018-05-26T06:51:57.403Z,23.7
2018-05-26T06:52:58.779Z,23.7
2018-05-26T06:54:00.158Z,23.7
2018-05-26T06:55:01.568Z,23.7
2018-05-26T06:56:02.948Z,23.7
2018-05-26T06:57:04.330Z,23.7
2018-05-26T06:58:05.769Z,23.7
2018-05-26T06:59:07.144Z,23.8
2018-05-26T07:00:08.520Z,23.8
2018-05-26T07:01:09.923Z,23.8
2018-05-26T07:02:11.299Z,23.8
2018-05-26T07:03:12.677Z,23.7
2018-05-26T07:04:14.063Z,23.7
2018-05-26T07:05:15.464Z,23.7
2018-05-26T07:06:16.861Z,23.7
2018-05-26T07:07:18.238Z,23.8
2018-05-26T07:08:19.617Z,23.9
2018-05-26T07:09:21.008Z,23.8
2018-05-26T07:10:22.405Z,23.9
2018-05-26T07:11:23.781Z,23.8
2018-05-26T07:12:25.146Z,23.9
2018-05-26T07:13:26.537Z,23.9
2018-05-26T07:14:27.929Z,24.0
2018-05-26T07:15:29.298Z,23.9
2018-05-26T07:16:30.682Z,23.9
2018-05-26T07:17:32.104Z,23.9
2018-05-26T07:18:33.494Z,23.9
2018-05-26T07:19:34.878Z,23.9
2018-05-26T07:20:36.240Z,23.9
2018-05-26T07:21:37.632Z,24.0
2018-05-26T07:22:39.015Z,23.9
2018-05-26T07:23:40.394Z,24.0
2018-05-26T07:24:41.815Z,24.0
2018-05-26T07:25:43.149Z,24.2
2018-05-26T07:26:44.526Z,24.4
2018-05-26T07:27:45.966Z,24.5
2018-05-26T07:28:47.292Z,24.7
2018-05-26T07:29:48.675Z,24.9
2018-05-26T07:30:50.056Z,24.9
2018-05-26T07:31:51.433Z,25.0
2018-05-26T07:32:52.818Z,25.0
2018-05-26T07:33:54.191Z,25.2
2018-05-26T07:34:55.566Z,25.2
2018-05-26T07:35:57.000Z,25.3
2018-05-26T07:36:58.368Z,25.3
2018-05-26T07:37:59.752Z,25.4
2018-05-26T07:39:01.152Z,25.6
2018-05-26T07:40:02.540Z,25.5
2018-05-26T07:41:03.915Z,25.4
2018-05-26T07:42:05.303Z,25.4
2018-05-26T07:43:06.742Z,25.4
2018-05-26T07:44:08.118Z,25.5
2018-05-26T07:45:09.504Z,25.4
2018-05-26T07:46:10.881Z,25.4
2018-05-26T07:47:12.276Z,25.4
2018-05-26T07:48:13.655Z,25.5
2018-05-26T07:49:15.039Z,25.5
2018-05-26T07:50:16.422Z,25.5
2018-05-26T07:51:17.811Z,25.6
2018-05-26T07:52:19.196Z,25.6
2018-05-26T07:53:20.582Z,25.6
2018-05-26T07:54:21.969Z,25.7
2018-05-26T07:55:23.391Z,25.6
2018-05-26T07:56:24.740Z,25.6
2018-05-26T07:57:26.106Z,25.6
2018-05-26T07:58:27.530Z,25.8
2018-05-26T07:59:28.929Z,25.7
2018-05-26T08:00:30.323Z,25.7
2018-05-26T08:01:31.695Z,25.7
2018-05-26T08:02:33.075Z,25.5
2018-05-26T08:03:34.455Z,25.5
2018-05-26T08:04:35.849Z,25.4
2018-05-26T08:05:37.222Z,25.5
2018-05-26T08:06:38.614Z,25.4
2018-05-26T08:07:39.996Z,25.5
2018-05-26T08:08:41.383Z,25.6
2018-05-26T08:09:42.764Z,25.6
2018-05-26T08:10:44.153Z,25.8
2018-05-26T08:11:45.526Z,25.8
2018-05-26T08:12:46.912Z,25.6
2018-05-26T08:13:48.295Z,25.6
2018-05-26T08:14:49.685Z,25.7
2018-05-26T08:15:51.103Z,25.7
2018-05-26T08:16:52.483Z,25.6
2018-05-26T08:17:53.861Z,25.7
2018-05-26T08:18:55.242Z,25.6
2018-05-26T08:19:56.630Z,25.4
2018-05-26T08:20:58.013Z,25.4
2018-05-26T08:21:59.412Z,25.3
2018-05-26T08:23:00.795Z,25.2
2018-05-26T08:24:02.180Z,25.3
2018-05-26T08:25:03.570Z,25.4
2018-05-26T08:26:04.949Z,25.4
2018-05-26T08:27:06.335Z,25.4
2018-05-26T08:28:07.752Z,25.3
2018-05-26T08:29:09.141Z,25.3
2018-05-26T08:30:10.532Z,25.4
2018-05-26T08:31:11.904Z,25.6
2018-05-26T08:32:13.290Z,25.8
2018-05-26T08:33:14.674Z,25.8
2018-05-26T08:34:16.058Z,25.9
2018-05-26T08:35:17.470Z,25.8
2018-05-26T08:36:18.844Z,25.7
2018-05-26T08:37:20.254Z,25.7
2018-05-26T08:38:21.685Z,25.8
2018-05-26T08:39:23.070Z,25.8
2018-05-26T08:40:24.449Z,25.8
2018-05-26T08:41:25.838Z,25.7
2018-05-26T08:42:27.226Z,25.8
2018-05-26T08:43:28.660Z,25.9
2018-05-26T08:44:30.051Z,25.8
2018-05-26T08:45:32.413Z,25.8
2018-05-26T08:46:33.750Z,25.8
2018-05-26T08:47:35.140Z,25.9
2018-05-26T08:48:36.596Z,25.8
2018-05-26T08:49:38.031Z,25.7
2018-05-26T08:50:39.417Z,25.8
2018-05-26T08:51:40.807Z,25.8
2018-05-26T08:52:42.184Z,26.0
2018-05-26T08:53:43.576Z,26.0
2018-05-26T08:54:44.978Z,26.2
2018-05-26T08:55:46.334Z,26.3
2018-05-26T08:56:47.720Z,26.4
2018-05-26T08:57:49.137Z,26.6
2018-05-26T08:58:50.523Z,26.7
2018-05-26T08:59:51.909Z,26.8
2018-05-26T09:00:53.295Z,27.0
2018-05-26T09:01:54.681Z,27.0
2018-05-26T09:02:56.070Z,26.8
2018-05-26T09:03:57.450Z,26.7
2018-05-26T09:04:58.862Z,26.7
2018-05-26T09:06:00.292Z,26.7
2018-05-26T09:07:02.404Z,26.7
2018-05-26T09:08:03.934Z,26.7
2018-05-26T09:09:05.318Z,26.8
2018-05-26T09:10:06.795Z,26.9
2018-05-26T09:11:08.331Z,26.8
2018-05-26T09:12:09.724Z,26.8
2018-05-26T09:13:11.116Z,26.7
2018-05-26T09:14:12.515Z,26.7
2018-05-26T09:15:13.889Z,26.7
2018-05-26T09:16:15.277Z,26.7
2018-05-26T09:17:16.658Z,26.5
2018-05-26T09:18:18.044Z,26.4
2018-05-26T09:19:19.437Z,26.4
2018-05-26T09:20:20.824Z,26.5
2018-05-26T09:21:22.212Z,26.5
2018-05-26T09:22:23.598Z,26.4
2018-05-26T09:23:24.985Z,26.4
2018-05-26T09:24:26.371Z,26.4
2018-05-26T09:25:27.786Z,26.4
2018-05-26T09:26:29.158Z,26.4
2018-05-26T09:27:30.543Z,26.5
2018-05-26T09:28:32.054Z,26.5
2018-05-26T09:29:33.440Z,26.7
2018-05-26T09:30:34.817Z,26.7
2018-05-26T09:31:36.210Z,26.8
2018-05-26T09:32:37.610Z,26.8
2018-05-26T09:33:38.995Z,26.8
2018-05-26T09:34:40.389Z,26.7
2018-05-26T09:35:41.779Z,26.7
2018-05-26T09:36:43.235Z,26.7
2018-05-26T09:37:44.619Z,26.7
2018-05-26T09:38:46.000Z,26.8
2018-05-26T09:39:47.394Z,26.8
2018-05-26T09:40:48.790Z,26.6
2018-05-26T09:41:50.179Z,26.6
2018-05-26T09:42:51.566Z,26.7
2018-05-26T09:43:52.954Z,26.7
2018-05-26T09:44:54.340Z,26.7
2018-05-26T09:45:55.736Z,26.5
2018-05-26T09:46:57.124Z,26.5
2018-05-26T09:47:58.508Z,26.5
2018-05-26T09:48:59.910Z,26.5
2018-05-26T09:50:01.327Z,26.5
2018-05-26T09:51:02.711Z,26.6
2018-05-26T09:52:04.099Z,26.7
2018-05-26T09:53:05.504Z,26.9
2018-05-26T09:54:06.884Z,27.0
2018-05-26T09:55:08.315Z,27.2
2018-05-26T09:56:09.714Z,27.2
2018-05-26T09:57:11.094Z,27.4
2018-05-26T09:58:12.485Z,27.4
2018-05-26T09:59:13.865Z,27.6
2018-05-26T10:00:15.255Z,27.5
2018-05-26T10:01:16.639Z,27.5
2018-05-26T10:02:18.020Z,27.5
2018-05-26T10:03:19.423Z,27.5
2018-05-26T10:04:20.845Z,27.5
2018-05-26T10:05:22.211Z,27.4
2018-05-26T10:06:23.606Z,27.3
2018-05-26T10:07:24.985Z,27.4
2018-05-26T10:08:26.388Z,27.4
2018-05-26T10:09:27.795Z,27.4
2018-05-26T10:10:29.172Z,27.3
2018-05-26T10:11:30.566Z,27.2
2018-05-26T10:12:31.978Z,27.1
2018-05-26T10:13:33.411Z,27.1
2018-05-26T10:14:34.761Z,27.2
2018-05-26T10:15:36.188Z,27.2
2018-05-26T10:16:37.580Z,27.4
2018-05-26T10:17:38.973Z,27.5
2018-05-26T10:18:40.359Z,27.5
2018-05-26T10:19:41.743Z,27.5
2018-05-26T10:20:43.131Z,27.3
2018-05-26T10:21:44.525Z,27.3
2018-05-26T10:22:45.927Z,27.1
2018-05-26T10:23:47.315Z,27.1
2018-05-26T10:24:48.770Z,27.2
2018-05-26T10:25:50.175Z,27.3
2018-05-26T10:26:51.555Z,27.5
2018-05-26T10:27:52.945Z,27.7
2018-05-26T10:28:54.339Z,27.8
2018-05-26T10:29:55.768Z,28.0
2018-05-26T10:30:57.125Z,28.0
2018-05-26T10:31:58.515Z,28.1
2018-05-26T10:32:59.940Z,27.9
2018-05-26T10:34:01.372Z,27.9
2018-05-26T10:35:02.733Z,27.9
2018-05-26T10:36:04.126Z,27.9
2018-05-26T10:37:05.512Z,27.8
2018-05-26T10:38:06.916Z,27.6
2018-05-26T10:39:08.275Z,27.5
2018-05-26T10:40:09.665Z,27.5
2018-05-26T10:41:11.054Z,27.5
2018-05-26T10:42:12.458Z,27.5
2018-05-26T10:43:13.845Z,27.5
2018-05-26T10:44:15.260Z,27.4
2018-05-26T10:45:16.642Z,27.3
2018-05-26T10:46:18.048Z,27.4
2018-05-26T10:47:19.443Z,27.5
2018-05-26T10:48:20.831Z,27.3
2018-05-26T10:49:22.227Z,27.3
2018-05-26T10:50:23.610Z,27.2
2018-05-26T10:51:25.000Z,27.2
2018-05-26T10:52:26.389Z,27.4
2018-05-26T10:53:27.817Z,27.7
2018-05-26T10:54:29.167Z,27.5
2018-05-26T10:55:30.560Z,27.5
2018-05-26T10:56:31.969Z,27.5
2018-05-26T10:57:33.359Z,27.4
2018-05-26T10:58:34.746Z,27.3
2018-05-26T10:59:36.127Z,27.3
2018-05-26T11:00:37.525Z,27.3
2018-05-26T11:01:38.905Z,27.1
2018-05-26T11:02:40.297Z,27.1
2018-05-26T11:03:41.676Z,27.1
2018-05-26T11:04:43.064Z,27.2
2018-05-26T11:05:44.453Z,27.3
2018-05-26T11:06:45.837Z,27.3
2018-05-26T11:07:47.283Z,27.3
2018-05-26T11:08:48.671Z,27.3
2018-05-26T11:09:50.048Z,27.2
2018-05-26T11:10:51.435Z,27.2
2018-05-26T11:11:52.826Z,27.2
2018-05-26T11:12:54.200Z,27.2
2018-05-26T11:13:55.589Z,27.0
2018-05-26T11:14:56.992Z,27.1
2018-05-26T11:15:58.413Z,27.1
2018-05-26T11:16:59.820Z,27.1
2018-05-26T11:18:01.582Z,27.0
2018-05-26T11:19:02.560Z,26.9
2018-05-26T11:20:03.941Z,26.9
2018-05-26T11:21:05.353Z,27.0
2018-05-26T11:22:06.735Z,27.1
2018-05-26T11:23:08.116Z,27.1
2018-05-26T11:24:09.509Z,27.2
2018-05-26T11:25:10.881Z,27.3
2018-05-26T11:26:12.341Z,27.3
2018-05-26T11:27:13.650Z,27.3
2018-05-26T11:28:15.057Z,27.5
2018-05-26T11:29:16.444Z,27.6
2018-05-26T11:30:17.829Z,27.5
2018-05-26T11:31:19.265Z,27.6
2018-05-26T11:32:20.650Z,27.6
2018-05-26T11:33:22.043Z,27.7
2018-05-26T11:34:23.432Z,27.8
2018-05-26T11:35:24.816Z,27.9
2018-05-26T11:36:26.212Z,28.1
2018-05-26T11:37:27.668Z,28.1
2018-05-26T11:38:29.001Z,28.0
2018-05-26T11:39:30.385Z,28.0
2018-05-26T11:40:31.812Z,28.0
2018-05-26T11:41:33.196Z,28.1
2018-05-26T11:42:34.596Z,28.2
2018-05-26T11:43:36.020Z,28.2
2018-05-26T11:44:37.373Z,28.3
2018-05-26T11:45:38.763Z,28.4
2018-05-26T11:46:40.149Z,28.5
2018-05-26T11:47:41.810Z,28.5
2018-05-26T11:48:43.196Z,28.6
2018-05-26T11:49:44.589Z,28.6
2018-05-26T11:50:45.973Z,28.4
2018-05-26T11:51:47.365Z,28.2
2018-05-26T11:52:48.746Z,28.2
2018-05-26T11:53:50.138Z,28.2
2018-05-26T11:54:51.534Z,28.4
2018-05-26T11:55:52.948Z,28.4
2018-05-26T11:56:54.397Z,28.6
2018-05-26T11:57:55.794Z,28.6
2018-05-26T11:58:58.039Z,28.6
2018-05-26T12:00:00.180Z,28.7
2018-05-26T12:01:02.214Z,28.9
2018-05-26T12:02:04.153Z,28.9
2018-05-26T12:03:06.491Z,29.0
2018-05-26T12:04:08.756Z,28.9
2018-05-26T12:05:10.915Z,29.0
2018-05-26T12:06:12.949Z,29.2
2018-05-26T12:07:14.899Z,29.1
2018-05-26T12:08:17.242Z,28.9
2018-05-26T12:09:19.461Z,28.8
2018-05-26T12:10:21.485Z,28.9
2018-05-26T12:11:23.458Z,28.7
2018-05-26T12:12:25.400Z,28.5
2018-05-26T12:13:27.744Z,28.2
2018-05-26T12:14:29.965Z,28.2
2018-05-26T12:15:32.016Z,28.2
2018-05-26T12:16:34.041Z,28.2
2018-05-26T12:17:35.981Z,28.3
2018-05-26T12:18:38.332Z,28.4
2018-05-26T12:19:39.739Z,28.5
2018-05-26T12:20:41.902Z,28.6
2018-05-26T12:21:43.965Z,28.7
2018-05-26T12:22:45.936Z,28.8
2018-05-26T12:23:47.330Z,28.9
2018-05-26T12:24:48.729Z,28.8
2018-05-26T12:25:50.958Z,28.6
2018-05-26T12:26:53.031Z,28.3
2018-05-26T12:27:55.003Z,28.2
2018-05-26T12:28:56.940Z,28.2
2018-05-26T12:29:59.369Z,28.2
2018-05-26T12:31:00.820Z,28.2
2018-05-26T12:32:03.082Z,28.3
2018-05-26T12:33:04.469Z,28.3
2018-05-26T12:34:06.686Z,28.3
2018-05-26T12:35:08.699Z,28.5
2018-05-26T12:36:10.661Z,28.5
2018-05-26T12:37:13.019Z,28.5
2018-05-26T12:38:15.287Z,28.8
2018-05-26T12:39:17.440Z,28.7
2018-05-26T12:40:19.510Z,28.8
2018-05-26T12:41:21.452Z,28.6
2018-05-26T12:42:23.855Z,28.4
2018-05-26T12:43:26.057Z,28.3
2018-05-26T12:44:27.447Z,28.4
2018-05-26T12:45:29.460Z,28.5
2018-05-26T12:46:31.406Z,28.4
2018-05-26T12:47:32.216Z,28.5
2018-05-26T12:48:34.431Z,28.6
2018-05-26T12:49:36.558Z,28.7
2018-05-26T12:50:38.553Z,28.8
2018-05-26T12:51:40.484Z,28.8
2018-05-26T12:52:42.795Z,28.8
2018-05-26T12:53:45.025Z,28.9
2018-05-26T12:54:47.049Z,28.9
2018-05-26T12:55:49.055Z,29.0
2018-05-26T12:56:51.091Z,28.8
2018-05-26T12:57:53.427Z,28.8
2018-05-26T12:58:55.575Z,28.9
2018-05-26T12:59:57.591Z,29.0
2018-05-26T13:00:59.569Z,29.0
2018-05-26T13:02:01.609Z,29.1
2018-05-26T13:03:03.976Z,29.1
2018-05-26T13:04:06.168Z,29.2
2018-05-26T13:05:08.336Z,29.3
2018-05-26T13:06:09.758Z,29.4
2018-05-26T13:07:11.706Z,29.5
2018-05-26T13:08:13.642Z,29.5
2018-05-26T13:09:15.040Z,29.6
2018-05-26T13:10:16.429Z,29.4
2018-05-26T13:11:18.594Z,29.3
2018-05-26T13:12:20.704Z,29.2
2018-05-26T13:13:22.673Z,29.2
2018-05-26T13:14:25.028Z,29.2
2018-05-26T13:15:27.189Z,29.2
2018-05-26T13:16:29.342Z,29.3
2018-05-26T13:17:31.388Z,29.4
2018-05-26T13:18:32.782Z,29.5
2018-05-26T13:19:34.172Z,29.6
2018-05-26T13:20:35.561Z,29.7
2018-05-26T13:21:36.949Z,29.7
2018-05-26T13:22:38.335Z,29.7
2018-05-26T13:23:39.727Z,29.7
2018-05-26T13:24:41.114Z,29.8
2018-05-26T13:25:42.515Z,29.7
2018-05-26T13:26:43.902Z,29.7
2018-05-26T13:27:45.289Z,29.6
2018-05-26T13:28:46.684Z,29.5
2018-05-26T13:29:48.073Z,29.5
2018-05-26T13:30:49.473Z,29.4
2018-05-26T13:31:50.887Z,29.4
2018-05-26T13:32:52.270Z,29.5
2018-05-26T13:33:53.663Z,29.6
2018-05-26T13:34:55.047Z,29.7
2018-05-26T13:35:56.431Z,29.7
2018-05-26T13:36:57.823Z,29.8
2018-05-26T13:37:59.206Z,29.7